createdAt,value
2019-03-09T00:00:08.262Z,27.59
2019-03-09T00:01:08.251Z,27.51
2019-03-09T00:02:08.259Z,27.50
2019-03-09T00:03:08.227Z,27.50
2019-03-09T00:04:08.218Z,27.59
2019-03-09T00:05:08.206Z,27.39
2019-03-09T00:06:08.194Z,27.59
2019-03-09T00:07:08.184Z,27.51
2019-03-09T00:08:08.456Z,27.59
2019-03-09T00:09:08.163Z,27.41
2019-03-09T00:10:08.151Z,27.61
2019-03-09T00:11:08.141Z,27.50
2019-03-09T00:12:08.128Z,27.41
2019-03-09T00:13:08.118Z,27.41
2019-03-09T00:14:08.113Z,27.71
2019-03-09T00:15:08.098Z,27.51
2019-03-09T00:16:08.084Z,27.71
2019-03-09T00:17:08.077Z,27.61
2019-03-09T00:18:08.063Z,27.61
2019-03-09T00:19:08.050Z,27.51
2019-03-09T00:20:08.374Z,27.39
2019-03-09T00:21:08.041Z,27.11
2019-03-09T00:22:08.018Z,27.51
2019-03-09T00:23:08.007Z,27.50
2019-03-09T00:24:07.995Z,27.41
2019-03-09T00:25:07.984Z,27.81
2019-03-09T00:26:08.292Z,27.51
2019-03-09T00:27:07.962Z,27.70
2019-03-09T00:28:07.951Z,27.71
2019-03-09T00:29:07.942Z,27.51
2019-03-09T00:30:07.931Z,27.81
2019-03-09T00:31:07.918Z,27.41
2019-03-09T00:32:07.915Z,27.61
2019-03-09T00:33:07.897Z,27.51
2019-03-09T00:34:07.885Z,27.39
2019-03-09T00:35:07.874Z,27.71
2019-03-09T00:36:07.866Z,27.61
2019-03-09T00:37:07.852Z,27.51
2019-03-09T00:38:07.863Z,27.41
2019-03-09T00:39:07.830Z,27.41
2019-03-09T00:40:07.826Z,27.71
2019-03-09T00:41:07.808Z,27.51
2019-03-09T00:42:07.796Z,27.70
2019-03-09T00:43:07.785Z,27.51
2019-03-09T00:44:07.793Z,27.71
2019-03-09T00:45:07.763Z,27.71
2019-03-09T00:46:07.752Z,27.71
2019-03-09T00:47:07.741Z,27.71
2019-03-09T00:48:07.730Z,27.61
2019-03-09T00:49:07.722Z,27.71
2019-03-09T00:50:07.728Z,27.71
2019-03-09T00:51:07.696Z,27.51
2019-03-09T00:52:07.685Z,27.71
2019-03-09T00:53:07.675Z,27.51
2019-03-09T00:54:07.664Z,27.61
2019-03-09T00:55:07.653Z,27.51
2019-03-09T00:56:07.647Z,27.51
2019-03-09T00:57:07.640Z,27.71
2019-03-09T00:58:07.621Z,27.71
2019-03-09T00:59:07.607Z,27.71
2019-03-09T01:00:07.597Z,27.71
2019-03-09T01:01:07.586Z,27.51
2019-03-09T01:02:07.909Z,27.61
2019-03-09T01:03:07.563Z,27.71
2019-03-09T01:04:07.553Z,27.51
2019-03-09T01:05:07.541Z,27.51
2019-03-09T01:06:07.531Z,27.81
2019-03-09T01:07:07.519Z,27.51
2019-03-09T01:08:07.834Z,27.61
2019-03-09T01:09:07.496Z,27.51
2019-03-09T01:10:07.488Z,27.61
2019-03-09T01:11:07.475Z,27.41
2019-03-09T01:12:07.463Z,27.61
2019-03-09T01:13:07.452Z,27.51
2019-03-09T01:14:07.460Z,27.71
2019-03-09T01:15:07.430Z,27.31
2019-03-09T01:16:07.421Z,27.71
2019-03-09T01:17:07.408Z,27.51
2019-03-09T01:18:07.398Z,27.51
2019-03-09T01:19:07.387Z,27.51
2019-03-09T01:20:07.709Z,27.71
2019-03-09T01:21:07.367Z,27.61
2019-03-09T01:22:07.352Z,27.81
2019-03-09T01:23:07.348Z,27.71
2019-03-09T01:24:07.332Z,27.51
2019-03-09T01:25:07.322Z,27.61
2019-03-09T01:26:07.327Z,27.51
2019-03-09T01:27:07.297Z,27.51
2019-03-09T01:28:07.287Z,27.71
2019-03-09T01:29:07.275Z,27.71
2019-03-09T01:30:07.266Z,27.61
2019-03-09T01:31:07.253Z,27.71
2019-03-09T01:32:07.249Z,27.51
2019-03-09T01:33:07.247Z,27.51
2019-03-09T01:34:07.220Z,27.61
2019-03-09T01:35:07.209Z,27.51
2019-03-09T01:36:07.199Z,27.71
2019-03-09T01:37:07.187Z,27.81
2019-03-09T01:38:07.234Z,27.61
2019-03-09T01:39:07.164Z,27.01
2019-03-09T01:40:07.203Z,27.71
2019-03-09T01:41:07.142Z,27.71
2019-03-09T01:42:07.132Z,27.71
2019-03-09T01:43:07.120Z,27.71
2019-03-09T01:44:07.118Z,27.01
2019-03-09T01:45:07.098Z,27.71
2019-03-09T01:46:07.086Z,27.71
2019-03-09T01:47:07.082Z,27.61
2019-03-09T01:48:07.065Z,27.01
2019-03-09T01:49:07.057Z,27.61
2019-03-09T01:50:07.049Z,27.51
2019-03-09T01:51:07.031Z,27.51
2019-03-09T01:52:07.020Z,27.71
2019-03-09T01:53:07.009Z,27.01
2019-03-09T01:54:06.998Z,27.01
2019-03-09T01:55:06.992Z,27.11
2019-03-09T01:56:06.994Z,27.11
2019-03-09T01:57:06.965Z,27.71
2019-03-09T01:58:06.966Z,27.11
2019-03-09T01:59:06.968Z,28.21
2019-03-09T02:00:06.931Z,27.11
2019-03-09T02:01:06.921Z,27.61
2019-03-09T02:02:07.231Z,27.01
2019-03-09T02:03:06.913Z,28.21
2019-03-09T02:04:06.888Z,28.21
2019-03-09T02:05:06.876Z,27.31
2019-03-09T02:06:06.865Z,27.01
2019-03-09T02:07:06.855Z,27.21
2019-03-09T02:08:06.851Z,27.11
2019-03-09T02:09:06.832Z,27.11
2019-03-09T02:10:06.820Z,28.21
2019-03-09T02:11:06.810Z,27.11
2019-03-09T02:12:06.797Z,27.21
2019-03-09T02:13:06.790Z,27.11
2019-03-09T02:14:06.784Z,28.21
2019-03-09T02:15:06.811Z,27.21
2019-03-09T02:16:06.756Z,27.41
2019-03-09T02:17:06.744Z,27.91
2019-03-09T02:18:06.732Z,27.81
2019-03-09T02:19:06.722Z,27.31
2019-03-09T02:20:06.717Z,27.11
2019-03-09T02:21:06.702Z,27.91
2019-03-09T02:22:06.687Z,27.91
2019-03-09T02:23:06.676Z,27.51
2019-03-09T02:24:06.666Z,27.91
2019-03-09T02:25:06.654Z,27.11
2019-03-09T02:26:06.664Z,27.91
2019-03-09T02:27:06.633Z,27.31
2019-03-09T02:28:06.621Z,27.91
2019-03-09T02:29:06.610Z,27.91
2019-03-09T02:30:06.599Z,27.91
2019-03-09T02:31:06.589Z,27.91
2019-03-09T02:32:06.901Z,27.91
2019-03-09T02:33:06.567Z,27.31
2019-03-09T02:34:06.559Z,28.01
2019-03-09T02:35:06.548Z,28.01
2019-03-09T02:36:06.533Z,27.81
2019-03-09T02:37:06.616Z,27.91
2019-03-09T02:38:06.536Z,27.31
2019-03-09T02:39:06.501Z,27.89
2019-03-09T02:40:06.488Z,27.91
2019-03-09T02:41:06.478Z,28.11
2019-03-09T02:42:06.466Z,27.89
2019-03-09T02:43:06.456Z,27.89
2019-03-09T02:44:08.709Z,27.80
2019-03-09T02:45:06.432Z,27.89
2019-03-09T02:46:06.423Z,28.19
2019-03-09T02:47:06.411Z,27.21
2019-03-09T02:48:06.401Z,27.09
2019-03-09T02:49:06.391Z,27.51
2019-03-09T02:50:06.386Z,27.50
2019-03-09T02:51:06.367Z,27.70
2019-03-09T02:52:06.356Z,27.70
2019-03-09T02:53:06.360Z,27.59
2019-03-09T02:54:06.333Z,27.70
2019-03-09T02:55:06.374Z,27.80
2019-03-09T02:56:06.318Z,27.59
2019-03-09T02:57:06.302Z,27.70
2019-03-09T02:58:06.289Z,27.59
2019-03-09T02:59:06.279Z,27.59
2019-03-09T03:00:06.268Z,27.39
2019-03-09T03:01:06.256Z,27.39
2019-03-09T03:02:06.579Z,27.59
2019-03-09T03:03:06.241Z,27.39
2019-03-09T03:04:06.224Z,27.39
2019-03-09T03:05:06.212Z,27.39
2019-03-09T03:06:06.202Z,27.50
2019-03-09T03:07:06.189Z,27.50
2019-03-09T03:08:06.207Z,28.09
2019-03-09T03:09:06.167Z,27.29
2019-03-09T03:10:06.246Z,27.50
2019-03-09T03:11:06.146Z,27.89
2019-03-09T03:12:06.135Z,27.50
2019-03-09T03:13:06.122Z,27.50
2019-03-09T03:14:06.132Z,27.89
2019-03-09T03:15:06.101Z,27.29
2019-03-09T03:16:06.089Z,27.89
2019-03-09T03:17:06.091Z,27.88
2019-03-09T03:18:06.091Z,27.78
2019-03-09T03:19:06.058Z,27.89
2019-03-09T03:20:06.339Z,27.88
2019-03-09T03:21:06.035Z,27.78
2019-03-09T03:22:06.023Z,27.88
2019-03-09T03:23:06.015Z,27.78
2019-03-09T03:24:06.003Z,27.48
2019-03-09T03:25:05.989Z,27.78
2019-03-09T03:26:06.003Z,27.58
2019-03-09T03:27:05.969Z,27.78
2019-03-09T03:28:05.959Z,27.58
2019-03-09T03:29:05.955Z,27.89
2019-03-09T03:30:05.935Z,27.59
2019-03-09T03:31:05.926Z,27.58
2019-03-09T03:32:06.030Z,27.58
2019-03-09T03:33:05.922Z,27.48
2019-03-09T03:34:05.911Z,27.58
2019-03-09T03:35:05.943Z,27.58
2019-03-09T03:36:05.895Z,27.58
2019-03-09T03:37:05.857Z,27.58
2019-03-09T03:38:06.164Z,27.48
2019-03-09T03:39:05.835Z,27.78
2019-03-09T03:40:05.845Z,27.48
2019-03-09T03:41:05.813Z,27.58
2019-03-09T03:42:05.802Z,27.48
2019-03-09T03:43:05.794Z,27.58
2019-03-09T03:44:05.798Z,27.68
2019-03-09T03:45:05.792Z,27.58
2019-03-09T03:46:05.758Z,27.98
2019-03-09T03:47:05.747Z,27.58
2019-03-09T03:48:05.737Z,28.18
2019-03-09T03:49:05.727Z,27.78
2019-03-09T03:50:05.998Z,27.78
2019-03-09T03:51:05.726Z,27.58
2019-03-09T03:52:05.691Z,27.48
2019-03-09T03:53:05.680Z,27.68
2019-03-09T03:54:05.668Z,28.18
2019-03-09T03:55:05.663Z,27.88
2019-03-09T03:56:05.654Z,27.58
2019-03-09T03:57:05.643Z,27.68
2019-03-09T03:58:05.638Z,27.68
2019-03-09T03:59:05.614Z,28.08
2019-03-09T04:00:05.604Z,27.58
2019-03-09T04:01:05.593Z,27.58
2019-03-09T04:02:05.593Z,28.18
2019-03-09T04:03:05.570Z,27.88
2019-03-09T04:04:05.561Z,27.88
2019-03-09T04:05:05.551Z,27.48
2019-03-09T04:06:05.537Z,27.58
2019-03-09T04:07:05.525Z,27.78
2019-03-09T04:08:05.522Z,27.68
2019-03-09T04:09:05.503Z,27.68
2019-03-09T04:10:05.491Z,27.68
2019-03-09T04:11:06.115Z,27.38
2019-03-09T04:12:05.475Z,27.88
2019-03-09T04:13:05.458Z,27.88
2019-03-09T04:14:05.773Z,27.68
2019-03-09T04:15:05.436Z,28.18
2019-03-09T04:16:05.427Z,27.48
2019-03-09T04:17:05.413Z,27.88
2019-03-09T04:18:05.407Z,27.68
2019-03-09T04:19:05.391Z,27.38
2019-03-09T04:20:05.401Z,28.18
2019-03-09T04:21:05.371Z,27.78
2019-03-09T04:22:05.359Z,27.68
2019-03-09T04:23:05.349Z,28.18
2019-03-09T04:24:05.341Z,28.08
2019-03-09T04:25:05.329Z,28.08
2019-03-09T04:26:05.322Z,27.48
2019-03-09T04:27:05.314Z,28.18
2019-03-09T04:28:05.292Z,27.68
2019-03-09T04:29:05.282Z,28.18
2019-03-09T04:30:05.279Z,27.68
2019-03-09T04:31:05.268Z,27.58
2019-03-09T04:32:05.254Z,27.48
2019-03-09T04:33:05.236Z,28.08
2019-03-09T04:34:05.227Z,27.38
2019-03-09T04:35:05.214Z,27.88
2019-03-09T04:36:05.203Z,28.18
2019-03-09T04:37:05.196Z,27.58
2019-03-09T04:38:05.188Z,27.78
2019-03-09T04:39:05.171Z,27.58
2019-03-09T04:40:05.160Z,27.58
2019-03-09T04:41:05.161Z,27.78
2019-03-09T04:42:05.137Z,27.58
2019-03-09T04:43:05.126Z,27.58
2019-03-09T04:44:05.390Z,27.58
2019-03-09T04:45:05.103Z,27.78
2019-03-09T04:46:05.092Z,27.48
2019-03-09T04:47:05.085Z,27.58
2019-03-09T04:48:05.071Z,27.58
2019-03-09T04:49:05.059Z,27.58
2019-03-09T04:50:05.383Z,27.78
2019-03-09T04:51:05.038Z,27.58
2019-03-09T04:52:05.026Z,27.38
2019-03-09T04:53:05.014Z,27.58
2019-03-09T04:54:05.004Z,27.38
2019-03-09T04:55:04.992Z,27.58
2019-03-09T04:56:05.002Z,27.58
2019-03-09T04:57:04.972Z,27.58
2019-03-09T04:58:04.962Z,27.38
2019-03-09T04:59:04.950Z,27.48
2019-03-09T05:00:04.937Z,27.68
2019-03-09T05:01:04.927Z,27.78
2019-03-09T05:02:04.924Z,27.48
2019-03-09T05:03:04.922Z,27.58
2019-03-09T05:04:04.892Z,27.58
2019-03-09T05:05:04.885Z,27.58
2019-03-09T05:06:04.870Z,27.58
2019-03-09T05:07:04.859Z,27.38
2019-03-09T05:08:04.856Z,27.58
2019-03-09T05:09:04.837Z,27.68
2019-03-09T05:10:04.828Z,27.68
2019-03-09T05:11:04.821Z,27.38
2019-03-09T05:12:04.803Z,27.58
2019-03-09T05:13:04.793Z,27.58
2019-03-09T05:14:04.803Z,27.48
2019-03-09T05:15:04.770Z,27.58
2019-03-09T05:16:04.760Z,27.58
2019-03-09T05:17:04.749Z,27.58
2019-03-09T05:18:04.740Z,27.58
2019-03-09T05:19:04.728Z,27.58
2019-03-09T05:20:04.726Z,27.58
2019-03-09T05:21:04.706Z,27.58
2019-03-09T05:22:04.697Z,27.58
2019-03-09T05:23:04.683Z,27.78
2019-03-09T05:24:04.671Z,27.58
2019-03-09T05:25:04.660Z,27.68
2019-03-09T05:26:04.975Z,27.78
2019-03-09T05:27:04.638Z,27.78
2019-03-09T05:28:04.628Z,27.78
2019-03-09T05:29:04.663Z,27.58
2019-03-09T05:30:04.606Z,27.78
2019-03-09T05:31:04.594Z,27.88
2019-03-09T05:32:04.761Z,27.78
2019-03-09T05:33:04.573Z,27.48
2019-03-09T05:34:04.561Z,27.58
2019-03-09T05:35:04.549Z,27.88
2019-03-09T05:36:04.539Z,27.78
2019-03-09T05:37:04.528Z,27.88
2019-03-09T05:38:04.523Z,27.89
2019-03-09T05:39:04.509Z,27.78
2019-03-09T05:40:04.494Z,27.28
2019-03-09T05:41:04.484Z,27.78
2019-03-09T05:42:04.472Z,27.88
2019-03-09T05:43:04.465Z,27.78
2019-03-09T05:44:04.458Z,27.88
2019-03-09T05:45:04.439Z,27.88
2019-03-09T05:46:04.428Z,27.48
2019-03-09T05:47:04.416Z,27.88
2019-03-09T05:48:04.405Z,27.88
2019-03-09T05:49:04.395Z,27.88
2019-03-09T05:50:04.783Z,27.58
2019-03-09T05:51:04.373Z,27.48
2019-03-09T05:52:04.369Z,27.28
2019-03-09T05:53:04.358Z,27.38
2019-03-09T05:54:04.340Z,27.38
2019-03-09T05:55:04.329Z,27.68
2019-03-09T05:56:04.324Z,28.08
2019-03-09T05:57:04.306Z,27.88
2019-03-09T05:58:04.294Z,27.38
2019-03-09T05:59:04.284Z,27.48
2019-03-09T06:00:04.272Z,27.48
2019-03-09T06:01:04.262Z,27.38
2019-03-09T06:02:04.263Z,27.48
2019-03-09T06:03:04.240Z,27.58
2019-03-09T06:04:04.243Z,27.38
2019-03-09T06:05:04.217Z,27.68
2019-03-09T06:06:04.207Z,27.58
2019-03-09T06:07:04.195Z,27.58
2019-03-09T06:08:04.510Z,27.68
2019-03-09T06:09:04.174Z,27.68
2019-03-09T06:10:04.165Z,27.58
2019-03-09T06:11:04.151Z,27.09
2019-03-09T06:12:04.143Z,26.98
2019-03-09T06:13:04.130Z,27.19
2019-03-09T06:14:04.137Z,27.88
2019-03-09T06:15:04.105Z,27.88
2019-03-09T06:16:04.095Z,27.19
2019-03-09T06:17:04.084Z,27.28
2019-03-09T06:18:06.216Z,27.88
2019-03-09T06:19:04.064Z,27.88
2019-03-09T06:20:04.323Z,27.80
2019-03-09T06:21:04.040Z,27.98
2019-03-09T06:22:04.029Z,27.78
2019-03-09T06:23:04.018Z,27.68
2019-03-09T06:24:04.009Z,28.08
2019-03-09T06:25:04.015Z,27.88
2019-03-09T06:26:04.048Z,27.98
2019-03-09T06:27:03.974Z,28.18
2019-03-09T06:28:03.964Z,28.08
2019-03-09T06:29:03.953Z,28.08
2019-03-09T06:30:03.941Z,27.78
2019-03-09T06:31:03.930Z,27.98
2019-03-09T06:32:04.239Z,27.78
2019-03-09T06:33:03.908Z,27.78
2019-03-09T06:34:03.896Z,27.98
2019-03-09T06:35:03.885Z,28.18
2019-03-09T06:36:03.874Z,27.78
2019-03-09T06:37:03.864Z,28.08
2019-03-09T06:38:04.177Z,27.98
2019-03-09T06:39:03.841Z,27.98
2019-03-09T06:40:03.830Z,27.78
2019-03-09T06:41:03.820Z,27.78
2019-03-09T06:42:03.811Z,27.98
2019-03-09T06:43:03.797Z,27.78
2019-03-09T06:44:03.796Z,28.08
2019-03-09T06:45:03.776Z,27.68
2019-03-09T06:46:03.763Z,28.18
2019-03-09T06:47:03.759Z,28.38
2019-03-09T06:48:03.741Z,28.00
2019-03-09T06:49:03.731Z,27.78
2019-03-09T06:50:04.053Z,27.88
2019-03-09T06:51:03.708Z,27.68
2019-03-09T06:52:03.699Z,28.18
2019-03-09T06:53:03.687Z,27.68
2019-03-09T06:54:03.711Z,27.68
2019-03-09T06:55:03.663Z,27.98
2019-03-09T06:56:03.919Z,28.38
2019-03-09T06:57:13.249Z,27.68
2019-03-09T06:58:04.629Z,27.88
2019-03-09T06:59:03.622Z,28.18
2019-03-09T07:00:03.610Z,28.08
2019-03-09T07:01:03.602Z,28.08
2019-03-09T07:02:03.606Z,27.68
2019-03-09T07:03:03.579Z,28.08
2019-03-09T07:04:03.564Z,27.88
2019-03-09T07:05:03.554Z,27.89
2019-03-09T07:06:03.584Z,27.88
2019-03-09T07:07:03.536Z,27.78
2019-03-09T07:08:03.852Z,27.88
2019-03-09T07:09:03.509Z,27.68
2019-03-09T07:10:03.498Z,27.78
2019-03-09T07:11:03.488Z,27.78
2019-03-09T07:12:03.476Z,27.70
2019-03-09T07:13:03.464Z,27.88
2019-03-09T07:14:03.773Z,27.68
2019-03-09T07:15:03.443Z,27.89
2019-03-09T07:16:03.433Z,27.48
2019-03-09T07:17:03.424Z,28.48
2019-03-09T07:18:03.409Z,27.78
2019-03-09T07:19:03.417Z,27.68
2019-03-09T07:20:12.335Z,27.88
2019-03-09T07:21:04.375Z,27.88
2019-03-09T07:22:03.366Z,27.48
2019-03-09T07:23:03.356Z,27.59
2019-03-09T07:24:03.342Z,27.88
2019-03-09T07:25:03.332Z,27.68
2019-03-09T07:26:03.329Z,27.88
2019-03-09T07:27:03.312Z,27.88
2019-03-09T07:28:03.301Z,27.58
2019-03-09T07:29:03.287Z,27.88
2019-03-09T07:30:03.276Z,27.88
2019-03-09T07:31:03.265Z,27.89
2019-03-09T07:32:03.588Z,28.28
2019-03-09T07:33:03.245Z,27.78
2019-03-09T07:34:03.232Z,27.98
2019-03-09T07:35:03.222Z,27.68
2019-03-09T07:36:03.217Z,28.08
2019-03-09T07:37:03.199Z,28.18
2019-03-09T07:38:03.507Z,28.38
2019-03-09T07:39:03.177Z,28.18
2019-03-09T07:40:03.165Z,27.39
2019-03-09T07:41:03.154Z,28.30
2019-03-09T07:42:03.143Z,27.38
2019-03-09T07:43:04.278Z,28.19
2019-03-09T07:44:03.129Z,28.18
2019-03-09T07:45:03.109Z,28.08
2019-03-09T07:46:03.099Z,28.18
2019-03-09T07:47:03.088Z,28.38
2019-03-09T07:48:03.077Z,28.19
2019-03-09T07:49:03.066Z,28.30
2019-03-09T07:50:03.383Z,28.18
2019-03-09T07:51:03.045Z,28.38
2019-03-09T07:52:03.033Z,28.38
2019-03-09T07:53:03.021Z,28.08
2019-03-09T07:54:03.011Z,28.08
2019-03-09T07:55:03.009Z,27.68
2019-03-09T07:56:03.031Z,27.38
2019-03-09T07:57:02.983Z,28.19
2019-03-09T07:58:02.973Z,28.18
2019-03-09T07:59:02.961Z,28.39
2019-03-09T08:00:02.947Z,28.28
2019-03-09T08:01:02.938Z,28.18
2019-03-09T08:02:03.203Z,28.18
2019-03-09T08:03:02.911Z,28.28
2019-03-09T08:04:02.899Z,28.50
2019-03-09T08:05:02.889Z,28.28
2019-03-09T08:06:02.889Z,28.28
2019-03-09T08:07:02.869Z,28.39
2019-03-09T08:08:02.862Z,28.39
2019-03-09T08:09:02.847Z,28.48
2019-03-09T08:10:02.842Z,28.39
2019-03-09T08:11:02.822Z,28.18
2019-03-09T08:12:02.814Z,28.18
2019-03-09T08:13:02.800Z,28.19
2019-03-09T08:14:02.808Z,28.19
2019-03-09T08:15:02.778Z,28.38
2019-03-09T08:16:02.768Z,28.38
2019-03-09T08:17:02.761Z,28.39
2019-03-09T08:18:02.745Z,28.28
2019-03-09T08:19:02.733Z,28.18
2019-03-09T08:20:03.055Z,28.48
2019-03-09T08:21:02.734Z,28.38
2019-03-09T08:22:02.701Z,28.68
2019-03-09T08:23:02.689Z,28.39
2019-03-09T08:24:02.680Z,28.09
2019-03-09T08:25:02.675Z,28.48
2019-03-09T08:26:02.662Z,28.08
2019-03-09T08:27:02.647Z,28.30
2019-03-09T08:28:02.636Z,28.08
2019-03-09T08:29:02.624Z,28.38
2019-03-09T08:30:02.770Z,28.30
2019-03-09T08:31:02.608Z,28.30
2019-03-09T08:32:04.229Z,28.18
2019-03-09T08:33:02.606Z,28.50
2019-03-09T08:34:02.576Z,28.08
2019-03-09T08:35:02.566Z,28.48
2019-03-09T08:36:02.546Z,28.39
2019-03-09T08:37:02.541Z,28.28
2019-03-09T08:38:02.532Z,28.69
2019-03-09T08:39:02.536Z,27.89
2019-03-09T08:40:02.501Z,28.08
2019-03-09T08:41:02.489Z,28.30
2019-03-09T08:42:02.478Z,28.28
2019-03-09T08:43:02.741Z,27.88
2019-03-09T08:44:02.476Z,28.30
2019-03-09T08:45:02.459Z,28.18
2019-03-09T08:46:02.461Z,28.50
2019-03-09T08:47:02.458Z,28.38
2019-03-09T08:48:02.412Z,28.08
2019-03-09T08:49:02.411Z,28.48
2019-03-09T08:50:02.399Z,28.30
2019-03-09T08:51:02.380Z,28.30
2019-03-09T08:52:02.368Z,28.38
2019-03-09T08:53:02.365Z,28.30
2019-03-09T08:54:02.383Z,28.48
2019-03-09T08:55:02.665Z,28.48
2019-03-09T08:56:02.324Z,28.09
2019-03-09T08:57:02.312Z,28.48
2019-03-09T08:58:02.343Z,28.38
2019-03-09T08:59:02.314Z,28.38
2019-03-09T09:00:02.305Z,28.08
2019-03-09T09:01:02.275Z,28.39
2019-03-09T09:02:02.257Z,28.38
2019-03-09T09:03:02.258Z,28.38
2019-03-09T09:04:02.235Z,28.08
2019-03-09T09:05:02.227Z,28.08
2019-03-09T09:06:02.227Z,28.08
2019-03-09T09:07:02.215Z,28.18
2019-03-09T09:08:03.787Z,28.08
2019-03-09T09:09:02.179Z,28.09
2019-03-09T09:10:02.179Z,28.08
2019-03-09T09:11:02.158Z,28.28
2019-03-09T09:12:02.146Z,28.68
2019-03-09T09:13:02.415Z,28.38
2019-03-09T09:14:02.125Z,28.48
2019-03-09T09:15:02.120Z,28.38
2019-03-09T09:16:02.108Z,28.18
2019-03-09T09:17:02.090Z,28.68
2019-03-09T09:18:02.084Z,28.58
2019-03-09T09:19:02.076Z,28.28
2019-03-09T09:20:02.063Z,28.58
2019-03-09T09:21:02.045Z,28.18
2019-03-09T09:22:02.036Z,28.68
2019-03-09T09:23:02.026Z,28.48
2019-03-09T09:24:02.013Z,28.28
2019-03-09T09:25:02.016Z,28.58
2019-03-09T09:26:01.991Z,27.98
2019-03-09T09:27:01.980Z,27.88
2019-03-09T09:28:01.969Z,28.38
2019-03-09T09:29:01.962Z,28.48
2019-03-09T09:30:01.946Z,28.28
2019-03-09T09:31:02.260Z,28.08
2019-03-09T09:32:01.924Z,27.98
2019-03-09T09:33:01.914Z,27.88
2019-03-09T09:34:01.903Z,28.68
2019-03-09T09:35:01.914Z,27.98
2019-03-09T09:36:01.882Z,28.48
2019-03-09T09:37:02.725Z,28.68
2019-03-09T09:38:01.858Z,28.48
2019-03-09T09:39:01.850Z,27.68
2019-03-09T09:40:01.837Z,28.28
2019-03-09T09:41:01.825Z,28.48
2019-03-09T09:42:01.817Z,28.28
2019-03-09T09:43:01.810Z,28.58
2019-03-09T09:44:01.791Z,28.08
2019-03-09T09:45:01.780Z,28.30
2019-03-09T09:46:01.769Z,27.88
2019-03-09T09:47:01.758Z,27.68
2019-03-09T09:48:01.750Z,28.08
2019-03-09T09:49:02.024Z,27.98
2019-03-09T09:50:01.727Z,28.38
2019-03-09T09:51:01.713Z,28.28
2019-03-09T09:52:01.705Z,28.58
2019-03-09T09:53:01.692Z,28.58
2019-03-09T09:54:01.683Z,27.98
2019-03-09T09:55:01.675Z,28.28
2019-03-09T09:56:01.663Z,28.48
2019-03-09T09:57:01.647Z,28.08
2019-03-09T09:58:01.667Z,28.28
2019-03-09T09:59:01.628Z,28.48
2019-03-09T10:00:01.616Z,27.88
2019-03-09T10:01:01.887Z,28.28
2019-03-09T10:02:01.592Z,28.28
2019-03-09T10:03:01.581Z,28.28
2019-03-09T10:04:01.570Z,28.38
2019-03-09T10:05:01.558Z,28.08
2019-03-09T10:06:01.547Z,28.48
2019-03-09T10:07:01.811Z,28.48
2019-03-09T10:08:01.524Z,28.48
2019-03-09T10:09:01.515Z,28.38
2019-03-09T10:10:01.506Z,28.48
2019-03-09T10:11:01.493Z,28.38
2019-03-09T10:12:01.484Z,28.38
2019-03-09T10:13:01.489Z,28.38
2019-03-09T10:14:01.459Z,28.67
2019-03-09T10:15:01.452Z,28.08
2019-03-09T10:16:01.438Z,28.68
2019-03-09T10:17:01.425Z,28.08
2019-03-09T10:18:01.415Z,28.08
2019-03-09T10:19:01.689Z,28.08
2019-03-09T10:20:01.398Z,28.18
2019-03-09T10:21:01.387Z,28.38
2019-03-09T10:22:01.373Z,28.58
2019-03-09T10:23:04.738Z,28.48
2019-03-09T10:24:01.348Z,28.38
2019-03-09T10:25:01.357Z,28.48
2019-03-09T10:26:01.326Z,28.17
2019-03-09T10:27:01.316Z,28.28
2019-03-09T10:28:01.305Z,28.27
2019-03-09T10:29:01.295Z,28.38
2019-03-09T10:30:01.281Z,27.38
2019-03-09T10:31:01.543Z,28.28
2019-03-09T10:32:01.260Z,27.38
2019-03-09T10:33:01.251Z,28.18
2019-03-09T10:34:01.240Z,27.38
2019-03-09T10:35:01.232Z,27.88
2019-03-09T10:36:01.217Z,27.68
2019-03-09T10:37:01.225Z,27.98
2019-03-09T10:38:01.220Z,27.97
2019-03-09T10:39:01.189Z,27.58
2019-03-09T10:40:01.171Z,27.88
2019-03-09T10:41:01.160Z,27.67
2019-03-09T10:42:01.151Z,27.88
2019-03-09T10:43:01.157Z,28.48
2019-03-09T10:44:01.129Z,28.48
2019-03-09T10:45:01.121Z,27.78
2019-03-09T10:46:01.105Z,27.57
2019-03-09T10:47:01.094Z,27.67
2019-03-09T10:48:01.085Z,27.78
2019-03-09T10:49:01.091Z,27.67
2019-03-09T10:50:01.063Z,27.47
2019-03-09T10:51:01.053Z,27.78
2019-03-09T10:52:01.044Z,27.88
2019-03-09T10:53:01.027Z,27.48
2019-03-09T10:54:01.016Z,27.87
2019-03-09T10:55:01.023Z,28.08
2019-03-09T10:56:00.994Z,27.78
2019-03-09T10:57:00.983Z,27.88
2019-03-09T10:58:00.972Z,27.87
2019-03-09T10:59:00.961Z,28.08
2019-03-09T11:00:00.950Z,27.98
2019-03-09T11:01:00.959Z,27.98
2019-03-09T11:02:00.933Z,28.17
2019-03-09T11:03:00.918Z,27.98
2019-03-09T11:04:00.905Z,27.77
2019-03-09T11:05:00.910Z,27.58
2019-03-09T11:06:00.884Z,28.08
2019-03-09T11:07:01.141Z,28.07
2019-03-09T11:08:00.860Z,28.07
2019-03-09T11:09:00.849Z,28.08
2019-03-09T11:10:00.840Z,27.87
2019-03-09T11:11:00.830Z,28.18
2019-03-09T11:12:00.821Z,28.17
2019-03-09T11:13:00.816Z,27.87
2019-03-09T11:14:00.823Z,27.87
2019-03-09T11:15:00.810Z,27.97
2019-03-09T11:16:00.773Z,28.07
2019-03-09T11:17:00.762Z,28.07
2019-03-09T11:18:00.750Z,28.07
2019-03-09T11:19:01.071Z,28.08
2019-03-09T11:20:00.729Z,28.07
2019-03-09T11:21:00.717Z,28.08
2019-03-09T11:22:00.707Z,28.07
2019-03-09T11:23:00.695Z,28.38
2019-03-09T11:24:00.685Z,28.17
2019-03-09T11:25:03.639Z,28.08
2019-03-09T11:26:00.665Z,28.07
2019-03-09T11:27:00.651Z,28.07
2019-03-09T11:28:00.640Z,28.07
2019-03-09T11:29:00.627Z,27.77
2019-03-09T11:30:00.618Z,27.87
2019-03-09T11:31:00.613Z,27.87
2019-03-09T11:32:00.595Z,27.77
2019-03-09T11:33:00.585Z,27.77
2019-03-09T11:34:00.573Z,28.08
2019-03-09T11:35:00.563Z,27.77
2019-03-09T11:36:00.550Z,27.77
2019-03-09T11:37:00.548Z,27.87
2019-03-09T11:38:00.528Z,27.98
2019-03-09T11:39:00.517Z,27.87
2019-03-09T11:40:00.507Z,27.77
2019-03-09T11:41:00.955Z,27.78
2019-03-09T11:42:00.511Z,27.77
2019-03-09T11:43:00.483Z,27.87
2019-03-09T11:44:00.463Z,27.97
2019-03-09T11:45:00.451Z,28.07
2019-03-09T11:46:00.439Z,28.18
2019-03-09T11:47:00.431Z,28.37
2019-03-09T11:48:00.418Z,27.67
2019-03-09T11:49:00.415Z,28.07
2019-03-09T11:50:00.407Z,28.07
2019-03-09T11:51:00.384Z,27.77
2019-03-09T11:52:00.385Z,27.97
2019-03-09T11:53:00.363Z,27.77
2019-03-09T11:54:00.351Z,27.97
2019-03-09T11:55:00.664Z,27.77
2019-03-09T11:56:00.335Z,27.77
2019-03-09T11:57:00.318Z,27.77
2019-03-09T11:58:00.307Z,28.17
2019-03-09T11:59:00.296Z,27.77
2019-03-09T12:00:00.417Z,27.77
2019-03-09T12:01:00.537Z,27.77
2019-03-09T12:02:00.265Z,27.77
2019-03-09T12:03:00.255Z,27.67
2019-03-09T12:04:00.242Z,27.77
2019-03-09T12:05:00.280Z,27.67
2019-03-09T12:06:00.219Z,27.87
2019-03-09T12:07:00.216Z,27.77
2019-03-09T12:08:00.196Z,27.77
2019-03-09T12:09:00.185Z,27.67
2019-03-09T12:10:00.330Z,27.77
2019-03-09T12:11:00.164Z,27.77
2019-03-09T12:12:00.152Z,27.77
2019-03-09T12:13:00.149Z,28.07
2019-03-09T12:14:00.130Z,28.17
2019-03-09T12:15:00.308Z,28.07
2019-03-09T12:16:00.115Z,27.97
2019-03-09T12:17:00.097Z,28.07
2019-03-09T12:18:00.087Z,28.07
2019-03-09T12:19:00.097Z,28.07
2019-03-09T12:20:00.066Z,28.07
2019-03-09T12:21:00.053Z,28.07
2019-03-09T12:22:00.042Z,27.67
2019-03-09T12:23:01.518Z,28.07
2019-03-09T12:24:00.020Z,28.07
2019-03-09T12:25:00.014Z,27.87
2019-03-09T12:25:59.998Z,27.87
2019-03-09T12:26:59.986Z,27.97
2019-03-09T12:27:59.975Z,27.97
2019-03-09T12:28:59.963Z,27.97
2019-03-09T12:29:59.954Z,27.87
2019-03-09T12:30:59.963Z,27.87
2019-03-09T12:31:59.935Z,27.87
2019-03-09T12:32:59.920Z,27.87
2019-03-09T12:33:59.909Z,27.17
2019-03-09T12:34:59.898Z,27.77
2019-03-09T12:35:59.887Z,27.27
2019-03-09T12:37:00.202Z,27.97
2019-03-09T12:37:59.864Z,27.87
2019-03-09T12:38:59.862Z,27.77
2019-03-09T12:39:59.843Z,27.27
2019-03-09T12:40:59.832Z,27.87
2019-03-09T12:41:59.831Z,27.27
2019-03-09T12:42:59.816Z,27.57
2019-03-09T12:43:59.799Z,27.67
2019-03-09T12:44:59.786Z,27.17
2019-03-09T12:45:59.786Z,27.57
2019-03-09T12:46:59.765Z,27.07
2019-03-09T12:47:59.754Z,27.47
2019-03-09T12:48:59.754Z,27.37
2019-03-09T12:49:59.733Z,27.47
2019-03-09T12:50:59.721Z,27.57
2019-03-09T12:51:59.710Z,27.57